Home > Products > Valid Products > MTR

000
SAUS43 KLOT 020356
MTRRFD
METAR KRFD 020354Z 11005KT 10SM FEW060 SCT070 OVC180 18/13 A2989 RMK
AO2 SLP120 T01780128





000
SAUS43 KLOT 020353
MTRDPA
METAR KDPA 020352Z 13006KT 10SM -RA SCT055 OVC075 19/12 A2989 RMK
AO2 RAB48 SLP119 P0000 T01890122





000
SAUS43 KLOT 020353
MTRORD
METAR KORD 020351Z 14009KT 10SM BKN080 OVC220 18/11 A2990 RMK AO2
SLP122 T01830106





000
SAUS43 KLOT 020256
MTRRFD
METAR KRFD 020254Z 13004KT 10SM BKN060 OVC250 18/13 A2990 RMK AO2
SLP122 T01780128 53007





000
SAUS43 KLOT 020254
MTRDPA
METAR KDPA 020252Z 13007KT 10SM BKN070 19/12 A2990 RMK AO2 SLP122
T01890117 53004





000
SAUS43 KLOT 020252
MTRORD
METAR KORD 020251Z 13009KT 10SM SCT080 BKN110 BKN220 OVC250 18/12
A2991 RMK AO2 SLP127 T01830117 53003





000
SAUS43 KLOT 020158
MTRORD
METAR KORD 020151Z 12009KT 10SM SCT100 BKN220 BKN250 19/12 A2990 RMK
AO2 SLP124 T01890117





000
SAUS43 KLOT 020153
MTRDPA
METAR KDPA 020152Z 13006KT 10SM CLR 19/12 A2989 RMK AO2 SLP121
T01890117





000
SAUS43 KLOT 020056
MTRRFD
METAR KRFD 020054Z 11009KT 10SM BKN060 OVC075 19/13 A2987 RMK AO2
SLP115 T01940128





000
SAUS43 KLOT 020053
MTRDPA
METAR KDPA 020052Z 12009KT 10SM CLR 19/12 A2988 RMK AO2 SLP118
T01890122





000
SAUS43 KLOT 020053
MTRORD
METAR KORD 020051Z 13011KT 10SM FEW150 SCT200 BKN250 19/12 A2990 RMK
AO2 SLP124 T01890117





000
SAUS43 KLOT 012356
MTRRFD
METAR KRFD 012354Z 11007KT 10SM BKN055 BKN075 OVC250 20/13 A2987 RMK
AO2 SLP115 T02000128 10228 20200 55001





000
SAUS43 KLOT 012353
MTRDPA
METAR KDPA 012352Z 11006KT 10SM CLR 19/13 A2988 RMK AO2 SLP119
T01940128 10228 20194 55003





000
SAUS43 KLOT 012353
MTRORD
METAR KORD 012351Z 09005KT 10SM SCT200 BKN250 BKN300 19/12 A2990 RMK
AO2 SLP125 T01890122 10211 20189 55001





000
SAUS43 KLOT 012256
MTRRFD
METAR KRFD 012254Z 12006KT 10SM SCT150 SCT200 OVC250 22/13 A2986 RMK
AO2 SLP112 T02170128





000
SAUS43 KLOT 012253
MTRDPA
METAR KDPA 012252Z 12008KT 10SM CLR 21/13 A2988 RMK AO2 SLP117
T02060128





000
SAUS43 KLOT 012252
MTRORD
METAR KORD 012251Z 11011KT 10SM FEW220 BKN250 BKN300 19/12 A2989 RMK
AO2 SLP122 T01940117





000
SAUS43 KLOT 012156
MTRRFD
METAR KRFD 012154Z 13011KT 10SM SCT160 OVC250 22/12 A2986 RMK AO2
SLP109 T02220122





000
SAUS43 KLOT 012153
MTRDPA
METAR KDPA 012152Z 13007KT 10SM CLR 21/13 A2988 RMK AO2 SLP116
T02110128





000
SAUS43 KLOT 012152
MTRORD
METAR KORD 012151Z 12011KT 10SM FEW220 BKN250 19/11 A2989 RMK AO2
SLP120 T01940111





000
SAUS43 KLOT 012056
MTRRFD
METAR KRFD 012054Z 14012KT 10SM FEW110 BKN150 OVC250 22/12 A2988 RMK
AO2 SLP116 T02220117 55021





000
SAUS43 KLOT 012053
MTRDPA
METAR KDPA 012052Z 13011KT 10SM CLR 23/13 A2989 RMK AO2 SLP120
T02280128 56026





000
SAUS43 KLOT 012052
MTRORD
METAR KORD 012051Z 13012KT 10SM FEW230 BKN250 19/11 A2991 RMK AO2
SLP126 T01940111 56024





000
SAUS43 KLOT 011956
MTRRFD
METAR KRFD 011954Z 13010KT 10SM SCT150 BKN250 23/12 A2987 RMK AO2
SLP114 T02280122





000
SAUS43 KLOT 011953
MTRDPA
METAR KDPA 011952Z 13010KT 10SM CLR 22/12 A2990 RMK AO2 SLP122
T02170122





000
SAUS43 KLOT 011952
MTRORD
METAR KORD 011951Z 11012KT 10SM FEW230 BKN300 21/11 A2991 RMK AO2
SLP126 T02110111





000
SAUS43 KLOT 011857
MTRRFD
METAR KRFD 011854Z 13013G21KT 10SM FEW150 OVC250 21/11 A2990 RMK AO2
SLP122 T02110111





000
SAUS43 KLOT 011853
MTRDPA
METAR KDPA 011852Z 12009KT 10SM CLR 21/11 A2993 RMK AO2 SLP135
T02110111





000
SAUS43 KLOT 011852
MTRORD
METAR KORD 011851Z 13010KT 10SM BKN300 20/10 A2994 RMK AO2 SLP139
T02000100





000
SAUS43 KLOT 011759 COR
MTRRFD
METAR KRFD 011754Z 13014KT 10SM OVC250 21/11 A2994 RMK AO2 SLP137
T02060106 10206 20094 56025





000
SAUS43 KLOT 011753
MTRDPA
METAR KDPA 011752Z 13008KT 10SM CLR 20/11 A2997 RMK AO2 SLP148
T02000106 10200 20094 58014





000
SAUS43 KLOT 011752
MTRORD
METAR KORD 011751Z 17007KT 10SM SCT300 18/09 A2998 RMK AO2 SLP151
T01830094 10183 20100





000
SAUS43 KLOT 011658
MTRMDW
METAR KMDW 011653Z 15008KT 100V190 10SM FEW300 18/11 A3000 RMK AO2
SLP155 T01830106





000
SAUS43 KLOT 011658
MTRRFD
METAR KRFD 011654Z 13011KT 10SM OVC250 19/10 A2997 RMK AO2 SLP147
T01890100





000
SAUS43 KLOT 011658
MTRORD
METAR KORD 011651Z 15007KT 10SM FEW300 17/09 A2999 RMK AO2 SLP156
T01720089





000
SAUS43 KLOT 011653
MTRDPA
METAR KDPA 011652Z VRB03KT 10SM CLR 18/09 A2998 RMK AO2 SLP151
T01830094





000
SAUS43 KLOT 011558
MTRRFD
METAR KRFD 011554Z 16012KT 10SM FEW085 SCT250 17/09 A2999 RMK AO2
SLP155 T01720094





000
SAUS43 KLOT 011555
MTRORD
METAR KORD 011551Z 13009KT 10SM FEW026 16/08 A3001 RMK AO2 SLP162
T01610083 $





000
SAUS43 KLOT 011553
MTRDPA
METAR KDPA 011552Z 15009KT 10SM CLR 17/09 A3000 RMK AO2 SLP159
T01670089





000
SAUS43 KLOT 011459 COR
MTRRFD
METAR KRFD 011454Z 15010KT 10SM FEW085 FEW250 15/09 A3002 RMK AO2
SLP165 T01500089 50005





000
SAUS43 KLOT 011454
MTRDPA
METAR KDPA 011452Z 14010KT 10SM CLR 16/09 A3001 RMK AO2 SLP163
T01560089 50003





000
SAUS43 KLOT 011452
MTRORD
METAR KORD 011451Z 16009KT 10SM FEW026 15/08 A3002 RMK AO2 SLP167
T01500083 52005 $





000
SAUS43 KLOT 011400 COR
MTRRFD
METAR KRFD 011354Z 14008KT 10SM SCT085 SCT250 12/08 A3002 RMK AO2
SLP168 T01220083





000
SAUS43 KLOT 011353
MTRDPA
METAR KDPA 011352Z 14010KT 10SM CLR 13/08 A3001 RMK AO2 SLP163
T01330083





000
SAUS43 KLOT 011352
MTRORD
METAR KORD 011351Z 14011KT 10SM FEW030 FEW300 13/08 A3002 RMK AO2
SLP167 T01330083 $





000
SAUS43 KLOT 011255
MTRRFD
METAR KRFD 011254Z 12008KT 10SM BKN065 11/08 A3001 RMK AO2 SLP164
T01060078





000
SAUS43 KLOT 011253
MTRDPA
METAR KDPA 011252Z 13006KT 10SM CLR 11/08 A3001 RMK AO2 SLP162
T01110078





000
SAUS43 KLOT 011252
MTRORD
METAR KORD 011251Z 14009KT 10SM FEW030 12/08 A3001 RMK AO2 SLP163
T01170083 $





000
SAUS43 KLOT 011159 COR
MTRRFD
METAR KRFD 011154Z 11005KT 10SM FEW020 SCT250 09/07 A3000 RMK AO2
SLP160 T00940072 10111 20094 58000





000
SAUS43 KLOT 011157 COR
MTRORD
METAR KORD 011151Z 14007KT 10SM FEW023 10/07 A3001 RMK AO2 SLP163
T01000072 10128 20094 53002 $





000
SAUS43 KLOT 011153
MTRDPA
METAR KDPA 011152Z 12005KT 10SM CLR 09/07 A3000 RMK AO2 SLP160
T00940072 10128 20094 53002





000
SAUS43 KLOT 011056
MTRRFD
METAR KRFD 011054Z 12004KT 10SM FEW020 09/08 A3001 RMK AO2 SLP164
T00940078





000
SAUS43 KLOT 011053
MTRDPA
METAR KDPA 011052Z 11005KT 10SM CLR 09/07 A2999 RMK AO2 SLP158
T00940067





000
SAUS43 KLOT 011052
MTRORD
METAR KORD 011051Z 17005KT 10SM SCT023 09/07 A3000 RMK AO2 SLP160
T00940067 $





000
SAUS43 KLOT 010956
MTRRFD
METAR KRFD 010954Z 11005KT 10SM SCT020 10/08 A3001 RMK AO2 SLP163
T01000083





000
SAUS43 KLOT 010954
MTRDPA
METAR KDPA 010952Z 12004KT 10SM CLR 10/07 A2999 RMK AO2 SLP158
T01000067





000
SAUS43 KLOT 010952
MTRORD
METAR KORD 010951Z 14011KT 10SM BKN022 12/08 A3000 RMK AO2 SLP158
T01220078 $





000
SAUS43 KLOT 010937
MTRRFD
SPECI KRFD 010935Z 11003KT 10SM BKN020 10/08 A3001 RMK AO2 T01000083





000
SAUS43 KLOT 010902
MTRDPA
SPECI KDPA 010901Z 11005KT 10SM SCT019 11/07 A2999 RMK AO2 T01110072





000
SAUS43 KLOT 010859 COR
MTRRFD
METAR KRFD 010854Z 11005KT 10SM SCT019 10/08 A3000 RMK AO2 SLP160
T01000083 58006





000
SAUS43 KLOT 010853
MTRDPA
METAR KDPA 010852Z 11008KT 10SM BKN019 11/07 A2999 RMK AO2 SLP156
T01110072 56003





000
SAUS43 KLOT 010852
MTRORD
METAR KORD 010851Z 15005KT 10SM OVC022 12/08 A3000 RMK AO2 SLP159
T01220078 56003 $





000
SAUS43 KLOT 010843
MTRMDW
SPECI KMDW 010841Z 16004KT 10SM SCT022 12/08 A3000 RMK AO2 T01220078





000
SAUS43 KLOT 010840
MTRRFD
SPECI KRFD 010839Z 11004KT 10SM BKN020 10/08 A3000 RMK AO2 T01000083





000
SAUS43 KLOT 010820 COR
MTRRFD
SPECI KRFD 010816Z 10006KT 10SM SCT019 10/08 A3000 RMK AO2 T01000083





000
SAUS43 KLOT 010759 COR
MTRRFD
METAR KRFD 010754Z 08004KT 10SM BKN020 11/08 A3001 RMK AO2 SLP165
T01060083





000
SAUS43 KLOT 010754
MTRDPA
METAR KDPA 010752Z 13006KT 10SM OVC020 13/08 A3000 RMK AO2 SLP159
T01280083





000
SAUS43 KLOT 010752
MTRORD
METAR KORD 010751Z 12011KT 10SM OVC021 12/08 A3000 RMK AO2 SLP160
T01220078 $





000
SAUS43 KLOT 010659 COR
MTRRFD
METAR KRFD 010654Z 11003KT 10SM OVC019 11/09 A3003 RMK AO2 SLP171
T01110089





000
SAUS43 KLOT 010653
MTRORD
METAR KORD 010651Z 11012KT 10SM OVC020 12/08 A3000 RMK AO2 SLP161
T01220078 $





000
SAUS43 KLOT 010653
MTRDPA
METAR KDPA 010652Z 09008KT 10SM BKN021 12/08 A2999 RMK AO2 SLP155
T01170078





000
SAUS43 KLOT 010556
MTRRFD
METAR KRFD 010554Z 10006KT 10SM OVC018 11/08 A3002 RMK AO2 SLP167
T01110083 10117 20094 401610078 58009





000
SAUS43 KLOT 010553
MTRDPA
METAR KDPA 010552Z 10003KT 10SM OVC021 12/09 A3000 RMK AO2 SLP159
T01220089 10122 20117 401500089 55008





000
SAUS43 KLOT 010552
MTRORD
METAR KORD 010551Z 09007KT 10SM OVC022 13/08 A3001 RMK AO2 SLP162
60000 T01280078 10128 20111 401440083 58005 $





000
SAUS43 KLOT 010455
MTRRFD
METAR KRFD 010454Z 08008KT 10SM OVC015 12/08 A3003 RMK AO2 SLP172
T01170078





000
SAUS43 KLOT 010453
MTRDPA
METAR KDPA 010452Z 06007KT 10SM OVC022 12/09 A3000 RMK AO2 SLP158
T01220089





000
SAUS43 KLOT 010452
MTRORD
METAR KORD 010451Z 08007KT 10SM OVC022 13/08 A3001 RMK AO2 SLP164
T01280083 $





000
SAUS43 KLOT 010356
MTRRFD
METAR KRFD 010354Z 10009KT 10SM OVC016 11/07 A3004 RMK AO2 SLP173
T01110072





000
SAUS43 KLOT 010353
MTRDPA
METAR KDPA 010352Z 03004KT 10SM OVC020 12/09 A3002 RMK AO2 SLP167
T01220094





000
SAUS43 KLOT 010352
MTRORD
METAR KORD 010351Z 07006KT 10SM OVC022 13/08 A3002 RMK AO2 SLP167
T01280083 $





000
SAUS43 KLOT 010300 COR
MTRRFD
METAR KRFD 010254Z 10008KT 10SM BKN019 11/07 A3005 RMK AO2 SLP178
T01060067 50006





000
SAUS43 KLOT 010257 COR
MTRORD
METAR KORD 010251Z 01006KT 10SM OVC020 12/09 A3002 RMK AO2 SLP169
60000 T01220094 51006 $





000
SAUS43 KLOT 010253
MTRDPA
METAR KDPA 010252Z 02004KT 10SM OVC019 12/09 A3002 RMK AO2 SLP168
T01220089 52004





000
SAUS43 KLOT 010156
MTRRFD
METAR KRFD 010154Z 08005KT 10SM BKN020 BKN250 09/06 A3005 RMK AO2
SLP179 T00940061





000
SAUS43 KLOT 010153
MTRDPA
METAR KDPA 010152Z 05005KT 10SM OVC019 12/09 A3002 RMK AO2 SLP169
T01170089





000
SAUS43 KLOT 010153
MTRORD
METAR KORD 010151Z 35004KT 10SM OVC019 12/09 A3002 RMK AO2 SLP168
T01220094 $





000
SAUS43 KLOT 010059 COR
MTRRFD
METAR KRFD 010054Z 09006KT 10SM BKN250 10/06 A3004 RMK AO2 SLP174
T01000061





000
SAUS43 KLOT 010053
MTRDPA
METAR KDPA 010052Z 06007KT 10SM OVC020 12/08 A3001 RMK AO2 SLP164
T01220083





000
SAUS43 KLOT 010052
MTRORD
METAR KORD 010051Z 35004KT 10SM OVC021 12/09 A3001 RMK AO2 DZE34
SLP164 P0000 T01170094 $





000
SAUS43 KLOT 010024
MTRORD
SPECI KORD 010023Z 02006KT 10SM -DZ BKN021 OVC026 12/09 A3001 RMK
AO2 P0000 T01170094 $





000
SAUS43 KLOT 010011
MTRORD
SPECI KORD 010010Z 35005KT 10SM -DZ FEW007 SCT013 OVC025 12/10 A3001
RMK AO2 P0000 T01170100 $





000
SAUS43 KLOT 302359 COR
MTRRFD
METAR KRFD 302354Z 09006KT 10SM BKN250 12/07 A3003 RMK AO2 SLP171
T01170067 10161 20111 53002





000
SAUS43 KLOT 302357 COR
MTRORD
METAR KORD 302351Z 03005KT 6SM -DZ BR SCT007 BKN013 OVC021 11/10
A3001 RMK AO2 DZB00 SLP163 P0000 60000 T01110100 10144 20111 50000 $





000
SAUS43 KLOT 302354
MTRDPA
METAR KDPA 302352Z 06006KT 10SM OVC021 12/08 A3001 RMK AO2 SLP165
T01220078 10150 20122 53003





000
SAUS43 KLOT 302345
MTRORD
SPECI KORD 302344Z 04005KT 6SM -DZ BR FEW007 BKN011 OVC020 12/10
A3001 RMK AO2 DZB00 P0000 T01170100 $





000
SAUS43 KLOT 302318
MTRORD
SPECI KORD 302316Z 02006KT 7SM -DZ BKN011 OVC015 11/09 A3002 RMK AO2
DZB00 P0000 T01110094 $





000
SAUS43 KLOT 302308
MTRORD
SPECI KORD 302307Z 02008KT 2 1/2SM R10L/6000VP6000FT -DZ BR BKN009
OVC017 11/10 A3001 RMK AO2 SFC VIS 3 DZB00 P0000 T01110100 $





000
SAUS43 KLOT 302306
MTRORD
SPECI KORD 302303Z 02009KT 2 1/2SM -DZ BR SCT011 BKN015 OVC022 12/09
A3001 RMK AO2 SFC VIS 3 DZB00 P0000 T01170094 $





000
SAUS43 KLOT 302259 COR
MTRRFD
METAR KRFD 302254Z 09010KT 10SM BKN250 14/06 A3003 RMK AO2 SLP169
T01390061





000
SAUS43 KLOT 302257 COR
MTRORD
METAR KORD 302251Z 04008KT 10SM BKN015 OVC022 12/09 A3001 RMK AO2
SLP164 T01170089 $





000
SAUS43 KLOT 302254
MTRDPA
METAR KDPA 302252Z 05008KT 10SM OVC022 13/07 A3001 RMK AO2 SLP163
T01280072





000
SAUS43 KLOT 302254
MTRMDW
METAR KMDW 302253Z 05009KT 10SM BKN020 BKN250 14/10 A3001 RMK AO2
DZB14E47 SLP160 P0000 T01390100





000
SAUS43 KLOT 302159 COR
MTRRFD
METAR KRFD 302154Z 07009KT 10SM FEW210 BKN250 15/07 A3002 RMK AO2
SLP168 T01500067





000
SAUS43 KLOT 302153
MTRDPA
METAR KDPA 302152Z 05008KT 10SM OVC025 14/08 A3000 RMK AO2 SLP161
T01390078





000
SAUS43 KLOT 302152
MTRORD
METAR KORD 302151Z 02006KT 10SM OVC021 13/08 A3001 RMK AO2 SLP163
T01280078 $





000
SAUS43 KLOT 302112
MTRORD
SPECI KORD 302111Z 04011KT 10SM BKN023 13/08 A3000 RMK AO2 T01330078
$





000
SAUS43 KLOT 302059 COR
MTRRFD
METAR KRFD 302054Z 07007KT 10SM BKN250 16/07 A3002 RMK AO2 SLP168
T01560067 56019





000
SAUS43 KLOT 302058 COR
MTRMDW
METAR KMDW 302053Z 02011KT 10SM BKN024 14/09 A3000 RMK AO2 SLP159
60000 T01440089 56012





000
SAUS43 KLOT 302053
MTRDPA
METAR KDPA 302052Z AUTO 07010KT 10SM OVC025 14/08 A3000 RMK AO2
SLP161 T01390078 56013 TSNO





000
SAUS43 KLOT 302052
MTRORD
METAR KORD 302051Z 04013KT 10SM OVC025 14/08 A3001 RMK AO2 SLP161
T01440078 58012 $





000
SAUS43 KLOT 302032 COR
MTRORD
SPECI KORD 302026Z 04010KT 10SM OVC025 13/08 A3002 RMK AO2 T01330078
$





000
SAUS43 KLOT 301957
MTRRFD
METAR KRFD 301954Z 06005KT 10SM BKN250 15/07 A3004 RMK AO2 SLP172
T01500067





000
SAUS43 KLOT 301953
MTRDPA
METAR KDPA 301952Z 04009KT 10SM OVC024 14/08 A3002 RMK AO2 SLP165
T01440078





000
SAUS43 KLOT 301952
MTRORD
METAR KORD 301951Z 05011KT 10SM BKN024 BKN027 13/08 A3003 RMK AO2
SLP169 T01280078 $





000
SAUS43 KLOT 301856
MTRRFD
METAR KRFD 301854Z 01007KT 10SM FEW016 BKN250 13/07 A3006 RMK AO2
SLP179 T01330067





000
SAUS43 KLOT 301853
MTRDPA
METAR KDPA 301852Z 04008KT 10SM OVC023 14/08 A3002 RMK AO2 SLP167
T01390078





000
SAUS43 KLOT 301852
MTRORD
METAR KORD 301851Z 03008KT 10SM BKN020 13/07 A3003 RMK AO2 SLP170
T01330072 $





000
SAUS43 KLOT 301839 COR
MTRRFD
SPECI KRFD 301835Z 05007KT 10SM SCT016 BKN250 13/07 A3007 RMK AO2
T01280067





000
SAUS43 KLOT 301759 COR
MTRRFD
METAR KRFD 301754Z VRB06KT 10SM OVC016 11/06 A3008 RMK AO2 SLP188
60000 T01110061 10111 20078 58006





000
SAUS43 KLOT 301753
MTRDPA
METAR KDPA 301752Z 06007KT 10SM OVC021 14/08 A3004 RMK AO2 SLP173
T01390078 10139 20089 58005





000
SAUS43 KLOT 301752
MTRORD
METAR KORD 301751Z 01009KT 10SM BKN017 13/08 A3004 RMK AO2 SLP173
60000 T01280078 10139 20083 58003 $





000
SAUS43 KLOT 301717
MTRRFD
SPECI KRFD 301716Z 06007KT 10SM OVC015 11/06 A3009 RMK AO2 T01110061





000
SAUS43 KLOT 301700 COR
MTRRFD
METAR KRFD 301654Z 10005KT 10SM OVC014 11/06 A3009 RMK AO2 SLP191
T01060056





000
SAUS43 KLOT 301653
MTRDPA
METAR KDPA 301652Z 06006KT 10SM OVC018 13/07 A3005 RMK AO2 SLP177
T01280072





000
SAUS43 KLOT 301652
MTRORD
METAR KORD 301651Z 03009KT 10SM BKN019 13/08 A3005 RMK AO2 DZE03
SLP178 P0000 T01280078 $





000
SAUS43 KLOT 301612
MTRORD
SPECI KORD 301611Z 01008KT 10SM OVC015 12/08 A3005 RMK AO2 DZE03
P0000 T01220078





000
SAUS43 KLOT 301556
MTRRFD
METAR KRFD 301554Z 04005KT 10SM OVC012 09/06 A3010 RMK AO2 SLP196
T00940056





000
SAUS43 KLOT 301553
MTRDPA
METAR KDPA 301552Z 36007KT 10SM OVC015 12/07 A3006 RMK AO2 SLP178
T01170072





000
SAUS43 KLOT 301552
MTRORD
METAR KORD 301551Z 01006KT 5SM -DZ BR OVC010 12/08 A3006 RMK AO2
DZB46 SLP178 VIS NE 3 P0000 T01170078





000
SAUS43 KLOT 301548
MTRDPA
SPECI KDPA 301547Z 04008KT 10SM OVC015 12/07 A3005 RMK AO2





000
SAUS43 KLOT 301545
MTRMDW
SPECI KMDW 301544Z 36007KT 8SM SCT007 BKN015 OVC020 13/11 A3005 RMK
AO2 DZE16 P0000 T01280106





000
SAUS43 KLOT 301504
MTRORD
SPECI KORD 301501Z 01009KT 9SM SCT009 OVC012 10/07 A3005 RMK AO2
T01000072





000
SAUS43 KLOT 301459 COR
MTRRFD
METAR KRFD 301454Z 04007KT 10SM OVC011 08/05 A3010 RMK AO2 SLP194
60000 T00830050 50005





000
SAUS43 KLOT 301454
MTRMDW
METAR KMDW 301453Z 34007KT 3SM -DZ BR OVC007 11/09 A3005 RMK AO2
DZB35 SLP174 P0000 60000 T01110094 50003 $





000
SAUS43 KLOT 301453
MTRDPA
METAR KDPA 301452Z 02010KT 10SM OVC012 11/07 A3006 RMK AO2 SLP178
T01110072 50000





000
SAUS43 KLOT 301452
MTRORD
METAR KORD 301451Z 35009KT 7SM OVC009 10/07 A3005 RMK AO2 DZE17
SLP177 P0000 60000 T01000072 51001





000
SAUS43 KLOT 301448
MTRORD
SPECI KORD 301447Z 01009KT 7SM OVC009 10/07 A3005 RMK AO2 DZE17
P0000





000
SAUS43 KLOT 301418
MTRRFD
SPECI KRFD 301417Z 06009KT 10SM OVC010 08/05 A3010 RMK AO2 CIG
008V013 T00830050





000
SAUS43 KLOT 301412
MTRDPA
SPECI KDPA 301410Z 03011KT 10SM OVC011 10/07 A3006 RMK AO2 T01000067





000
SAUS43 KLOT 301357
MTRRFD
METAR KRFD 301354Z 06009KT 9SM OVC008 08/06 A3010 RMK AO2 DZE20
SLP193 P0000 T00780056





000
SAUS43 KLOT 301357 COR
MTRORD
METAR KORD 301351Z 01010KT 3SM -DZ BR BKN007 OVC014 09/07 A3006 RMK
AO2 DZE23B47 SLP180 P0000 T00890072





000
SAUS43 KLOT 301353
MTRDPA
METAR KDPA 301352Z 03010KT 10SM OVC009 09/07 A3006 RMK AO2 CIG
007V012 SLP181 T00940067





000
SAUS43 KLOT 301352
MTRMDW
METAR KMDW 301351Z 33010KT 7SM BKN006 OVC010 11/09 A3005 RMK AO2
DZE30 SLP176 P0000 T01060094 $





000
SAUS43 KLOT 301325
MTRORD
SPECI KORD 301324Z 35008KT 6SM BR BKN007 OVC014 09/07 A3006 RMK AO2
DZE23 P0000 T00890072 $





000
SAUS43 KLOT 301313
MTRMDW
SPECI KMDW 301312Z 35010KT 5SM -DZ BR BKN007 BKN010 OVC016 11/09
A3004 RMK AO2 P0000 T01060094





000
SAUS43 KLOT 301307
MTRORD
SPECI KORD 301306Z 35010KT 3SM -DZ BR OVC007 08/07 A3006 RMK AO2
P0000 T00830067 $





000
SAUS43 KLOT 301257
MTRRFD
METAR KRFD 301254Z 07009KT 5SM -DZ BR OVC008 08/06 A3010 RMK AO2
SLP192 P0000 T00830061





000
SAUS43 KLOT 301257 COR
MTRORD
METAR KORD 301251Z 36009KT 2 1/2SM -DZ BR OVC007 08/07 A3005 RMK AO2
SLP177 P0000 T00830072 $





000
SAUS43 KLOT 301253
MTRDPA
METAR KDPA 301252Z 36010KT 10SM OVC009 09/07 A3006 RMK AO2 SLP178
T00940067





000
SAUS43 KLOT 301252
MTRMDW
METAR KMDW 301251Z 35009KT 4SM -DZ BR SCT009 OVC016 11/09 A3004 RMK
AO2 DZB40 SLP171 P0000 T01110094





000
SAUS43 KLOT 301247
MTRMDW
SPECI KMDW 301246Z 35008KT 7SM -DZ SCT009 OVC016 11/09 A3004 RMK AO2
DZB40 P0000





000
SAUS43 KLOT 301232
MTRORD
SPECI KORD 301231Z 36009KT 2 1/2SM -DZ BR OVC007 08/07 A3005 RMK AO2
P0000 T00830067 $





000
SAUS43 KLOT 301217 COR
MTRORD
SPECI KORD 301209Z 36010KT 3SM -DZ BR BKN009 OVC017 08/07 A3005 RMK
AO2 P0000 T00830067 $





000
SAUS43 KLOT 301157 COR
MTRORD
METAR KORD 301151Z 35010KT 5SM -DZ BR BKN009 OVC015 09/07 A3004 RMK
AO2 SLP174 P0000 60000 70001 T00890072 10122 20089 50002 $





000
SAUS43 KLOT 301156
MTRRFD
METAR KRFD 301154Z 08008KT 7SM -DZ OVC007 09/07 A3008 RMK AO2 CIG
006V010 SLP187 P0000 60000 T00890072 10122 20089 53001





000
SAUS43 KLOT 301153
MTRDPA
METAR KDPA 301152Z 02010KT 10SM OVC011 09/07 A3005 RMK AO2 SLP174
T00890067 10122 20089 50002





000
SAUS43 KLOT 301152
MTRMDW
METAR KMDW 301151Z 35009KT 10SM FEW011 OVC016 12/09 A3004 RMK AO2
SLP169 60000 T01170094 10139 20117 53002





000
SAUS43 KLOT 301113
MTRORD
SPECI KORD 301112Z 36010KT 5SM -DZ BR BKN009 OVC015 09/07 A3004 RMK
AO2 P0000 T00890072 $





000
SAUS43 KLOT 301100 COR
MTRRFD
METAR KRFD 301054Z 08007KT 10SM -DZ OVC009 09/07 A3008 RMK AO2
DZE0959B17 CIG 007V012 SLP184 P0000 T00940072





000
SAUS43 KLOT 301053
MTRORD
METAR KORD 301051Z 35008KT 4SM -DZ BR BKN007 OVC013 09/08 A3005 RMK
AO2 SLP174 P0000 T00890078 $





000
SAUS43 KLOT 301053
MTRDPA
METAR KDPA 301052Z 02010KT 10SM OVC012 09/07 A3005 RMK AO2 SLP174
T00940067





000
SAUS43 KLOT 301041
MTRORD
SPECI KORD 301040Z 36009KT 4SM -DZ BR BKN007 OVC013 09/08 A3004 RMK
AO2 P0000 T00890078 $





000
SAUS43 KLOT 301022
MTRRFD
SPECI KRFD 301021Z 07007KT 10SM -DZ BKN008 OVC014 09/07 A3008 RMK
AO2 DZE0959B17 P0000 T00940072





000
SAUS43 KLOT 301009
MTRORD
SPECI KORD 301008Z 01009KT 6SM -DZ BR BKN008 OVC013 09/08 A3004 RMK
AO2 P0000 T00940078 $





000
SAUS43 KLOT 301000 COR
MTRRFD
METAR KRFD 300954Z 06007KT 10SM -DZ SCT009 OVC015 10/08 A3008 RMK
AO2 SLP183 P0000 T01000078





000
SAUS43 KLOT 300957 COR
MTRORD
METAR KORD 300951Z 01011KT 8SM -DZ BKN010 OVC013 09/08 A3004 RMK AO2
DZB48 SLP171 P0000 T00940078 $





000
SAUS43 KLOT 300954
MTRDPA
METAR KDPA 300952Z 02011KT 10SM OVC014 10/07 A3005 RMK AO2 SLP172
T01000072





000
SAUS43 KLOT 300952
MTRMDW
METAR KMDW 300951Z 01013G19KT 10SM BKN016 BKN021 OVC041 13/09 A3003
RMK AO2 SLP162 T01280089





000
SAUS43 KLOT 300946
MTRDPA
SPECI KDPA 300945Z 01012KT 10SM OVC015 10/07 A3005 RMK AO2 T01000072





000
SAUS43 KLOT 300916
MTRRFD
SPECI KRFD 300915Z 07008KT 10SM -DZ BKN008 OVC011 10/08 A3008 RMK
AO2 P0000 T01000083





000
SAUS43 KLOT 300856
MTRRFD
METAR KRFD 300854Z 05009KT 10SM -DZ OVC010 11/08 A3008 RMK AO2 DZB48
SLP183 P0000 60000 T01060083 51010





000
SAUS43 KLOT 300854
MTRDPA
METAR KDPA 300852Z 03012KT 10SM OVC014 11/07 A3004 RMK AO2 SLP169
T01060072 51008





000
SAUS43 KLOT 300852
MTRORD
METAR KORD 300851Z 01012KT 10SM OVC014 11/08 A3004 RMK AO2 SLP169
T01060078 51006 $





000
SAUS43 KLOT 300847 COR
MTRRFD
SPECI KRFD 300842Z 04010KT 10SM OVC011 11/08 A3008 RMK AO2 T01060078





000
SAUS43 KLOT 300841
MTRDPA
SPECI KDPA 300839Z 03009KT 10SM OVC015 11/08 A3004 RMK AO2 T01110078





000
SAUS43 KLOT 300758 COR
MTRRFD
METAR KRFD 300754Z 04012KT 10SM BKN009 OVC011 11/08 A3008 RMK AO2
SLP182 T01110078





000
SAUS43 KLOT 300754
MTRDPA
METAR KDPA 300752Z 05011KT 10SM OVC013 12/08 A3003 RMK AO2 SLP166
T01170083





000
SAUS43 KLOT 300752
MTRORD
METAR KORD 300751Z 02013KT 10SM BKN014 OVC020 11/08 A3004 RMK AO2
SLP168 T01110078 $





000
SAUS43 KLOT 300658 COR
MTRRFD
METAR KRFD 300654Z 04010KT 10SM OVC009 12/09 A3007 RMK AO2 CIG
008V013 SLP178 T01170089





000
SAUS43 KLOT 300657 COR
MTRORD
METAR KORD 300651Z 03012KT 10SM OVC014 12/08 A3002 RMK AO2 SLP164
T01170083 $





000
SAUS43 KLOT 300653
MTRDPA
METAR KDPA 300652Z 02011KT 10SM OVC011 12/09 A3002 RMK AO2 SLP163
T01170089





000
SAUS43 KLOT 300652
MTRMDW
METAR KMDW 300651Z 03011KT 10SM OVC014 14/10 A3002 RMK AO2 SLP158
T01390100





000
SAUS43 KLOT 300642
MTRRFD
SPECI KRFD 300641Z 06008KT 10SM OVC009 12/09 A3006 RMK AO2 CIG
008V011 T01170094





000
SAUS43 KLOT 300607
MTRDPA
SPECI KDPA 300606Z 03010KT 10SM OVC010 12/09 A3001 RMK AO2 T01220094





000
SAUS43 KLOT 300559 COR
MTRRFD
METAR KRFD 300554Z 08008KT 10SM OVC012 12/08 A3005 RMK AO2 SLP173
T01170083 10222 20117 402890117 53004





000
SAUS43 KLOT 300553
MTRDPA
METAR KDPA 300552Z 05012KT 10SM OVC009 12/10 A3001 RMK AO2 SLP161
60000 T01220100 10206 20122 402940117 53002





000
SAUS43 KLOT 300552
MTRORD
METAR KORD 300551Z 03011KT 10SM OVC010 12/09 A3002 RMK AO2 SLP163
60001 T01220094 10156 20122 402830117 53002 $





000
SAUS43 KLOT 300459 COR
MTRRFD
METAR KRFD 300454Z 05010KT 10SM OVC012 13/09 A3004 RMK AO2 SLP170
T01280094





000
SAUS43 KLOT 300457 COR
MTRORD
METAR KORD 300451Z 03014KT 10SM OVC010 12/11 A3001 RMK AO2 RAE12
SLP160 P0001 T01220106 $





000
SAUS43 KLOT 300453
MTRDPA
METAR KDPA 300452Z 03009KT 10SM OVC009 13/11 A3001 RMK AO2 RAB09E20
SLP158 P0000 T01280106





000
SAUS43 KLOT 300452
MTRMDW
METAR KMDW 300451Z 03013KT 10SM -RA OVC013 14/12 A3000 RMK AO2
DZB12E22B41E45RAB22 SLP152 P0000 T01440117





000
SAUS43 KLOT 300446
MTRDPA
SPECI KDPA 300445Z 03011KT 10SM OVC009 13/11 A3000 RMK AO2 RAB09E20
P0000 T01280106





000
SAUS43 KLOT 300358
MTRRFD
METAR KRFD 300354Z 06009KT 8SM OVC011 13/10 A3004 RMK AO2 SLP171
T01330100





000
SAUS43 KLOT 300355
MTRORD
METAR KORD 300351Z 03012G19KT 10SM -RA OVC011 13/11 A3002 RMK AO2
RAB19E31B49 SLP163 P0000 T01330106 $





000
SAUS43 KLOT 300353
MTRDPA
METAR KDPA 300352Z 04011KT 10SM OVC013 13/11 A3000 RMK AO2 SLP157
T01330106





000
SAUS43 KLOT 300302
MTRORD
SPECI KORD 300300Z 02015G22KT 10SM OVC011 13/11 A3002 RMK AO2
T01330106 $





000
SAUS43 KLOT 300259 COR
MTRRFD
METAR KRFD 300254Z 06014KT 7SM OVC011 14/11 A3004 RMK AO2 CIG
010V013 SLP169 T01440111 51028





000
SAUS43 KLOT 300257 COR
MTRORD
METAR KORD 300251Z 02016G20KT 10SM OVC009 13/11 A3001 RMK AO2 SLP162
T01330106 51015 $





000
SAUS43 KLOT 300253
MTRDPA
METAR KDPA 300252Z 04014KT 10SM OVC010 14/11 A3001 RMK AO2 SLP160
T01390111 51023





000
SAUS43 KLOT 300252
MTRMDW
METAR KMDW 300251Z 03015KT 10SM OVC011 16/12 A3001 RMK AO2 SLP157
T01560122 51018





000
SAUS43 KLOT 300240
MTRDPA
SPECI KDPA 300239Z 05010KT 10SM OVC010 14/11 A3000 RMK AO2 T01390111





000
SAUS43 KLOT 300200 COR
MTRORD
METAR KORD 300151Z 03014G19KT 10SM OVC008 13/11 A3000 RMK AO2 SLP160
T01330111 $





000
SAUS43 KLOT 300159 COR
MTRRFD
METAR KRFD 300154Z 06010KT 8SM OVC014 16/12 A3003 RMK AO2 SLP168
T01610122





000
SAUS43 KLOT 300153
MTRDPA
METAR KDPA 300152Z 04013G22KT 10SM OVC009 14/11 A3000 RMK AO2 SLP158
T01390111





000
SAUS43 KLOT 300152
MTRMDW
METAR KMDW 300151Z 02016G23KT 7SM OVC010 16/13 A3000 RMK AO2 SLP154
T01610128





000
SAUS43 KLOT 300142
MTRMDW
SPECI KMDW 300141Z 01017KT 6SM HZ OVC010 16/13 A3000 RMK AO2
T01610128





000
SAUS43 KLOT 300124
MTRDPA
SPECI KDPA 300123Z 03013KT 10SM OVC009 15/12 A2999 RMK AO2 T01500122





000
SAUS43 KLOT 300112
MTRRFD
SPECI KRFD 300111Z 06011G20KT 10SM BKN016 17/13 A3001 RMK AO2
T01670128





000
SAUS43 KLOT 300055
MTRRFD
METAR KRFD 300054Z 05012KT 10SM FEW020 SCT070 17/13 A3000 RMK AO2
SLP158 T01720128





000
SAUS43 KLOT 300054
MTRORD
METAR KORD 300051Z 02016G23KT 10SM OVC008 14/12 A2999 RMK AO2 SLP156
T01390117 $





000
SAUS43 KLOT 300054
MTRDPA
METAR KDPA 300052Z 04010KT 9SM OVC010 16/13 A2998 RMK AO2 SLP150
T01560128





000
SAUS43 KLOT 300052
MTRMDW
METAR KMDW 300051Z 03014G24KT 6SM HZ OVC009 17/14 A2998 RMK AO2
SLP149 T01670139





000
SAUS43 KLOT 300046
MTRDPA
SPECI KDPA 300045Z 04010KT 9SM BKN010 16/13 A2998 RMK AO2 T01560128





000
SAUS43 KLOT 300029
MTRORD
SPECI KORD 300028Z 03015G23KT 10SM OVC008 14/12 A2998 RMK AO2
T01440122 $





000
SAUS43 KLOT 292359 COR
MTRRFD
METAR KRFD 292354Z 01010KT 10SM SCT065 22/15 A2995 RMK AO2 SLP142
T02220150 10289 20222 55001





000
SAUS43 KLOT 292355
MTRORD
METAR KORD 292351Z 03017KT 10SM OVC010 16/13 A2997 RMK AO2 PK WND
04026/2253 WSHFT 2248 SLP147 T01560128 10283 20156 53012 $





000
SAUS43 KLOT 292353
MTRDPA
METAR KDPA 292352Z 10SM FEW090 21/14 A2994 RMK AO2 SLP137 T02110139
10294 20211 55000





000
SAUS43 KLOT 292352
MTRMDW
METAR KMDW 292351Z 02015G24KT 9SM FEW000 SCT010 BKN070 18/15 A2996
RMK AO2 SLP140 VIS NE 5 FG FEW000 T01830150 10289 20183 53008





000
SAUS43 KLOT 292336
MTRORD
SPECI KORD 292334Z 03016G26KT 10SM BKN010 16/13 A2997 RMK AO2 PK WND
04026/2253 WSHFT 2248 T01610133 $





000
SAUS43 KLOT 292309
MTRORD
SPECI KORD 292308Z 04021G26KT 10SM FEW060 FEW075 17/14 A2995 RMK AO2
PK WND 04026/2253 WSHFT 2248 PRESRR T01720139 $





000
SAUS43 KLOT 292259 COR
MTRRFD
METAR KRFD 292254Z 29004KT 10SM FEW060 26/14 A2994 RMK AO2 SLP137
T02560144





000
SAUS43 KLOT 292254
MTRDPA
METAR KDPA 292252Z 30007KT 10SM CLR 26/13 A2993 RMK AO2 SLP132
T02610133





000
SAUS43 KLOT 292252
MTRORD
METAR KORD 292251Z 05014G20KT 10SM FEW060 FEW075 22/14 A2993 RMK AO2
SLP133 T02220139 $





000
SAUS43 KLOT 292159 COR
MTRRFD
METAR KRFD 292154Z 26006KT 10SM FEW060 27/13 A2995 RMK AO2 SLP137
T02720133





000
SAUS43 KLOT 292157 COR
MTRORD
METAR KORD 292151Z 30010KT 10SM FEW065 SCT075 27/12 A2993 RMK AO2
SLP131 T02720122 $





000
SAUS43 KLOT 292153
MTRDPA
METAR KDPA 292152Z AUTO 30008KT 10SM SCT085 27/13 A2993 RMK AO2
SLP132 T02670128 TSNO





000
SAUS43 KLOT 292152
MTRMDW
METAR KMDW 292151Z 31012KT 10SM FEW065 SCT080 28/13 A2992 RMK AO2
SLP124 T02830133





000
SAUS43 KLOT 292058 COR
MTRRFD
METAR KRFD 292054Z 27008KT 10SM FEW060 28/13 A2996 RMK AO2 SLP141
T02780128 56018





000
SAUS43 KLOT 292054
MTRORD
METAR KORD 292051Z 31009KT 10SM FEW060 SCT075 28/12 A2993 RMK AO2
SLP132 T02780122 56020 $





000
SAUS43 KLOT 292053
MTRDPA
METAR KDPA 292052Z AUTO 28010KT 10SM CLR 27/12 A2994 RMK AO2 SLP134
T02720122 56020 TSNO





000
SAUS43 KLOT 292052
MTRMDW
METAR KMDW 292051Z 25009KT 10SM SCT070 29/14 A2993 RMK AO2 SLP127
T02890144 56022





000
SAUS43 KLOT 291959 COR
MTRRFD
METAR KRFD 291954Z 26009KT 10SM SCT065 28/13 A2997 RMK AO2 SLP146
T02780133





000
SAUS43 KLOT 291953
MTRDPA
METAR KDPA 291952Z 32008KT 10SM SCT060 29/13 A2995 RMK AO2 SLP138
T02890128





000
SAUS43 KLOT 291952
MTRORD
METAR KORD 291951Z 30011KT 10SM SCT060 28/13 A2995 RMK AO2 SLP137
T02780128 $





000
SAUS43 KLOT 291859 COR
MTRRFD
METAR KRFD 291854Z 27007KT 10SM SCT060 28/14 A2999 RMK AO2 SLP151
T02830139





000
SAUS43 KLOT 291857 COR
MTRORD
METAR KORD 291851Z 26011G19KT 10SM SCT060 28/14 A2996 RMK AO2 SLP143
T02780139 $





000
SAUS43 KLOT 291853
MTRDPA
METAR KDPA 291852Z 23008KT 10SM FEW060 29/14 A2997 RMK AO2 SLP145
T02890139





000
SAUS43 KLOT 291852
MTRMDW
METAR KMDW 291851Z 29011G15KT 10SM FEW055 28/15 A2997 RMK AO2 SLP140
T02830150





000
SAUS43 KLOT 291757
MTRRFD
METAR KRFD 291754Z 26012KT 10SM SCT055 28/13 A3001 RMK AO2 SLP159
T02830133 10289 20117 58014





000
SAUS43 KLOT 291757 COR
MTRORD
METAR KORD 291751Z 24008KT 10SM SCT065 27/14 A2999 RMK AO2 SLP153
T02670139 10267 20128 58015 $





000
SAUS43 KLOT 291753
MTRDPA
METAR KDPA 291752Z 29007KT 10SM SCT060 27/14 A3000 RMK AO2 SLP155
T02670139 10283 20122 58015





000
SAUS43 KLOT 291753
MTRMDW
METAR KMDW 291751Z 27009KT 10SM CLR 27/15 A3000 RMK AO2 SLP150
T02720150 10272 20156 58015





000
SAUS43 KLOT 291656
MTRRFD
METAR KRFD 291654Z 30007KT 10SM FEW060 27/14 A3003 RMK AO2 SLP167
T02670144





000
SAUS43 KLOT 291653
MTRDPA
METAR KDPA 291652Z 24005KT 10SM CLR 27/15 A3002 RMK AO2 SLP161
T02670150





000
SAUS43 KLOT 291652
MTRORD
METAR KORD 291651Z VRB05KT 10SM CLR 26/14 A3001 RMK AO2 SLP160
T02560139 $





000
SAUS43 KLOT 291600 COR
MTRRFD
METAR KRFD 291554Z 30004KT 10SM SCT060 25/16 A3005 RMK AO2 SLP172
T02500156





000
SAUS43 KLOT 291557 COR
MTRORD
METAR KORD 291551Z 26007KT 10SM CLR 23/13 A3002 RMK AO2 SLP164
T02330133 $





000
SAUS43 KLOT 291553
MTRDPA
METAR KDPA 291552Z 27005KT 10SM CLR 24/15 A3003 RMK AO2 SLP166
T02440150





000
SAUS43 KLOT 291552
MTRMDW
METAR KMDW 291551Z 24004KT 10SM CLR 24/14 A3003 RMK AO2 SLP160
T02390144





000
SAUS43 KLOT 291459 COR
MTRRFD
METAR KRFD 291454Z 21003KT 10SM FEW150 21/15 A3005 RMK AO2 SLP175
T02060150 58003





000
SAUS43 KLOT 291454
MTRORD
METAR KORD 291451Z 25006KT 10SM CLR 21/13 A3004 RMK AO2 SLP169
T02110128 50000 $





000
SAUS43 KLOT 291453
MTRDPA
METAR KDPA 291452Z 22005KT 9SM CLR 21/14 A3004 RMK AO2 SLP171
T02110139 50002





000
SAUS43 KLOT 291452
MTRMDW
METAR KMDW 291451Z 23007KT 10SM CLR 22/14 A3004 RMK AO2 SLP166
T02170139 50001





000
SAUS43 KLOT 291359 COR
MTRRFD
METAR KRFD 291354Z 17003KT 10SM CLR 16/13 A3006 RMK AO2 SLP179
T01560133





000
SAUS43 KLOT 291353
MTRDPA
METAR KDPA 291352Z 23006KT 5SM HZ CLR 18/14 A3005 RMK AO2 SLP174
T01830139





000
SAUS43 KLOT 291352
MTRORD
METAR KORD 291351Z 25004KT 7SM FEW250 18/13 A3004 RMK AO2 SLP171
T01830133 $





000
SAUS43 KLOT 291257 COR
MTRORD
METAR KORD 291251Z 00000KT 5SM BR FEW250 14/13 A3004 RMK AO2 SLP171
T01440128 $





000
SAUS43 KLOT 291256
MTRRFD
METAR KRFD 291254Z 00000KT 7SM CLR 13/11 A3008 RMK AO2 SLP183
T01280111





000
SAUS43 KLOT 291253
MTRDPA
METAR KDPA 291252Z 17003KT 5SM BR CLR 14/13 A3005 RMK AO2 SLP172
T01440133





000
SAUS43 KLOT 291252
MTRMDW
METAR KMDW 291251Z 00000KT 10SM FEW250 17/14 A3004 RMK AO2 SLP169
T01670139





000
SAUS43 KLOT 291227 COR
MTRORD
SPECI KORD 291222Z 00000KT 5SM BR FEW250 13/12 A3004 RMK AO2
T01280117 $





000
SAUS43 KLOT 291159 COR
MTRRFD
METAR KRFD 291154Z 00000KT 6SM BR FEW250 12/10 A3007 RMK AO2 SLP180
T01170100 10144 20117 51003





000
SAUS43 KLOT 291156 COR
MTRORD
METAR KORD 291151Z 00000KT 3SM BR FEW250 13/12 A3004 RMK AO2 SLP170
T01280122 10150 20117 57000 $





000
SAUS43 KLOT 291153
MTRDPA
METAR KDPA 291152Z 17003KT 5SM MIFG CLR 13/12 A3004 RMK AO2 SLP171
T01280117 10139 20117 58001





000
SAUS43 KLOT 291148
MTRORD
SPECI KORD 291147Z 20003KT 3SM BR FEW250 13/12 A3003 RMK AO2 $





000
SAUS43 KLOT 291057 COR
MTRORD
METAR KORD 291051Z 00000KT 6SM BR FEW250 13/12 A3004 RMK AO2 SLP170
T01280117 $





000
SAUS43 KLOT 291056
MTRRFD
METAR KRFD 291054Z 00000KT 10SM SCT250 12/11 A3006 RMK AO2 SLP176
T01220111





000
SAUS43 KLOT 291054
MTRDPA
METAR KDPA 291052Z 00000KT 5SM MIFG CLR 12/11 A3004 RMK AO2 SLP170
T01220111





000
SAUS43 KLOT 291000 COR
MTRRFD
METAR KRFD 290954Z 00000KT 10SM SCT250 13/11 A3007 RMK AO2 SLP178
T01280111





000
SAUS43 KLOT 290957 COR
MTRORD
METAR KORD 290951Z 00000KT 6SM BR FEW250 13/12 A3004 RMK AO2 SLP169
T01280117





000
SAUS43 KLOT 290953
MTRDPA
METAR KDPA 290952Z 00000KT 5SM MIFG CLR 13/11 A3005 RMK AO2 SLP171
T01280111





000
SAUS43 KLOT 290856
MTRRFD
METAR KRFD 290854Z 00000KT 10SM SCT250 13/11 A3006 RMK AO2 SLP175
T01330111 58004





000
SAUS43 KLOT 290854
MTRDPA
METAR KDPA 290852Z 00000KT 7SM FEW004 13/12 A3004 RMK AO2 SLP170
T01280117 56004





000
SAUS43 KLOT 290852
MTRORD
METAR KORD 290851Z 00000KT 7SM FEW250 13/12 A3004 RMK AO2 SLP170
T01280117 58003





000
SAUS43 KLOT 290759 COR
MTRRFD
METAR KRFD 290754Z 15003KT 10SM FEW250 13/11 A3007 RMK AO2 SLP178
T01280111





000
SAUS43 KLOT 290757 COR
MTRORD
METAR KORD 290751Z 26003KT 10SM FEW250 14/13 A3005 RMK AO2 SLP173
T01440128





000
SAUS43 KLOT 290754
MTRDPA
METAR KDPA 290752Z 00000KT 7SM CLR 13/11 A3005 RMK AO2 SLP173
T01330111





000
SAUS43 KLOT 290659 COR
MTRRFD
METAR KRFD 290654Z 00000KT 10SM FEW250 13/11 A3008 RMK AO2 SLP183
T01330111





000
SAUS43 KLOT 290654
MTRDPA
METAR KDPA 290652Z 00000KT 7SM CLR 13/12 A3006 RMK AO2 SLP174
T01330117





000
SAUS43 KLOT 290652
MTRORD
METAR KORD 290651Z 00000KT 10SM CLR 13/12 A3005 RMK AO2 SLP172
T01330122





000
SAUS43 KLOT 290558 COR
MTRRFD
METAR KRFD 290554Z 00000KT 10SM CLR 14/12 A3007 RMK AO2 SLP179
T01440117 10222 20144 402830122 58010





000
SAUS43 KLOT 290557 COR
MTRORD
METAR KORD 290551Z 25003KT 10SM CLR 15/13 A3005 RMK AO2 SLP172
T01500128 10206 20139 402560117 58009





000
SAUS43 KLOT 290554
MTRDPA
METAR KDPA 290552Z 00000KT 6SM BR CLR 14/12 A3005 RMK AO2 SLP173
T01390117 10211 20133 402780106 58009





000
SAUS43 KLOT 290455
MTRORD
METAR KORD 290451Z 00000KT 10SM CLR 14/13 A3006 RMK AO2 SLP177
T01390128





000
SAUS43 KLOT 290455
MTRRFD
METAR KRFD 290454Z 00000KT 10SM CLR 15/12 A3008 RMK AO2 SLP184
T01500122





000
SAUS43 KLOT 290453
MTRDPA
METAR KDPA 290452Z 00000KT 7SM CLR 14/13 A3007 RMK AO2 SLP178
T01440128





    US Dept of Commerce
    National Oceanic and Atmospheric Administration
    National Weather Service
    1325 East West Highway
    Silver Spring, MD 20910
    Page Author: NWS Internet Services Team
Disclaimer
Information Quality
Credits
Glossary
Privacy Policy
Freedom of Information Act (FOIA)
About Us
Career Opportunities